Time;durP1;ratioP1;P1;durP2;ratioP2;P2;SDS_P1;SDS_P2;PMS_P1;PMS_P2;Temp;Humidity;BMP_temperature;BMP_pressure;BME280_temperature;BME280_humidity;BME280_pressure;Samples;Min_cycle;Max_cycle;Signal;HPM_P1;HPM_P2
2022/08/27 00:00:13;;;;;;;7.15;5.20;;;;;;;17.52;100.00;100787.59;693026;28;1167;-46
2022/08/27 00:00:35;;;;;;;6.22;4.57;;;;;;;17.57;100.00;100778.66;694138;28;1087;-50
2022/08/27 00:00:56;;;;;;;7.07;4.93;;;;;;;17.53;100.00;100783.19;693051;28;4325;-49
2022/08/27 00:01:16;;;;;;;6.73;4.93;;;;;;;17.52;100.00;100787.59;692689;28;978;-48
2022/08/27 00:01:36;;;;;;;6.15;4.78;;;;;;;17.50;100.00;100781.53;692539;28;1554;-45
2022/08/27 00:01:57;;;;;;;6.27;4.87;;;;;;;17.53;100.00;100777.91;692809;28;1047;-47
2022/08/27 00:02:18;;;;;;;6.00;4.70;;;;;;;17.54;100.00;100776.97;692684;28;1306;-48
2022/08/27 00:02:39;;;;;;;6.93;4.97;;;;;;;17.51;100.00;100785.00;692675;28;1051;-47
2022/08/27 00:03:01;;;;;;;6.72;4.82;;;;;;;17.45;100.00;100780.78;692910;28;1136;-43
2022/08/27 00:03:22;;;;;;;6.13;4.65;;;;;;;17.46;100.00;100786.94;691861;28;1276;-46
2022/08/27 00:03:45;;;;;;;6.45;4.43;;;;;;;17.45;100.00;100785.22;692584;28;4291;-46
2022/08/27 00:04:05;;;;;;;6.38;4.57;;;;;;;17.41;100.00;100778.31;693258;28;1715;-46
2022/08/27 00:04:26;;;;;;;6.57;4.88;;;;;;;17.37;100.00;100782.81;693409;28;1196;-51
2022/08/27 00:04:47;;;;;;;6.30;5.00;;;;;;;17.33;100.00;100781.16;693378;28;1167;-46
2022/08/27 00:05:09;;;;;;;6.15;5.18;;;;;;;17.29;100.00;100785.72;693951;28;1028;-44
2022/08/27 00:05:29;;;;;;;6.70;5.05;;;;;;;17.29;100.00;100783.06;692777;28;1432;-46
2022/08/27 00:05:50;;;;;;;6.07;4.80;;;;;;;17.29;100.00;100785.72;693427;28;1830;-48
2022/08/27 00:06:12;;;;;;;6.63;4.90;;;;;;;17.26;100.00;100779.63;693657;28;1155;-44
2022/08/27 00:06:34;;;;;;;6.10;4.93;;;;;;;17.25;100.00;100778.78;693322;28;1043;-45
2022/08/27 00:06:55;;;;;;;6.93;5.35;;;;;;;17.28;100.00;100783.09;691893;28;4502;-48
2022/08/27 00:07:16;;;;;;;7.33;5.03;;;;;;;17.31;100.00;100783.00;692240;28;992;-48
2022/08/27 00:07:36;;;;;;;7.40;4.93;;;;;;;17.31;100.00;100773.28;691347;28;1123;-46
2022/08/27 00:07:57;;;;;;;7.32;4.88;;;;;;;17.34;100.00;100778.47;693420;28;1313;-48
2022/08/27 00:08:17;;;;;;;7.23;5.13;;;;;;;17.35;100.00;100780.22;692205;28;1090;-45
2022/08/27 00:08:38;;;;;;;7.97;5.28;;;;;;;17.36;100.00;100776.66;692255;28;1491;-46
2022/08/27 00:08:58;;;;;;;6.93;5.00;;;;;;;17.47;100.00;100776.34;693279;28;1020;-44
2022/08/27 00:09:18;;;;;;;9.10;5.63;;;;;;;17.39;100.00;100774.81;691747;28;1154;-49
2022/08/27 00:09:39;;;;;;;8.83;5.83;;;;;;;17.46;100.00;100779.00;691737;28;4360;-45
2022/08/27 00:10:00;;;;;;;8.07;5.47;;;;;;;17.44;100.00;100773.78;690254;28;1204;-47
2022/08/27 00:10:23;;;;;;;7.13;5.60;;;;;;;17.43;100.00;100782.63;690142;28;1053;-45
2022/08/27 00:10:44;;;;;;;7.20;5.85;;;;;;;17.47;100.00;100776.34;693070;28;1152;-48
2022/08/27 00:11:04;;;;;;;6.93;5.93;;;;;;;17.45;100.00;100779.94;692841;28;1293;-45
2022/08/27 00:11:25;;;;;;;7.10;5.80;;;;;;;17.44;100.00;100775.56;689774;28;1194;-46
2022/08/27 00:11:45;;;;;;;7.83;5.77;;;;;;;17.42;100.00;100775.63;690661;28;1255;-44
2022/08/27 00:12:07;;;;;;;7.38;5.95;;;;;;;17.43;100.00;100782.63;691653;28;1251;-46
2022/08/27 00:12:27;;;;;;;8.02;5.72;;;;;;;17.43;100.00;100777.34;689597;28;1389;-43
2022/08/27 00:12:48;;;;;;;9.40;5.97;;;;;;;17.43;100.00;100781.75;690040;28;4407;-46
2022/08/27 00:13:08;;;;;;;7.38;5.55;;;;;;;17.43;100.00;100780.00;690804;28;1278;-46
2022/08/27 00:13:29;;;;;;;7.27;5.97;;;;;;;17.43;100.00;100779.09;693305;28;1215;-45
2022/08/27 00:13:50;;;;;;;7.75;6.00;;;;;;;17.55;100.00;100781.34;690943;28;1317;-44
2022/08/27 00:14:10;;;;;;;8.65;6.25;;;;;;;17.51;100.00;100780.63;692470;28;1170;-43
2022/08/27 00:14:31;;;;;;;8.70;6.30;;;;;;;17.53;100.00;100777.91;692048;28;1418;-47
2022/08/27 00:14:52;;;;;;;8.00;6.17;;;;;;;17.51;100.00;100779.72;692331;28;1241;-48
2022/08/27 00:15:14;;;;;;;7.90;5.90;;;;;;;17.41;100.00;100779.16;693726;28;1344;-46
2022/08/27 00:15:35;;;;;;;7.95;6.13;;;;;;;17.41;100.00;100780.94;692632;28;1226;-47
2022/08/27 00:15:55;;;;;;;9.05;6.22;;;;;;;17.42;100.00;100777.38;691747;28;4487;-49
2022/08/27 00:16:16;;;;;;;8.60;6.23;;;;;;;17.39;100.00;100774.81;692107;28;1292;-48
2022/08/27 00:16:36;;;;;;;8.43;6.53;;;;;;;17.46;100.00;100782.53;692642;28;1535;-47
2022/08/27 00:16:57;;;;;;;7.78;6.30;;;;;;;17.46;100.00;100784.28;691892;28;1068;-50
2022/08/27 00:17:17;;;;;;;8.33;6.97;;;;;;;17.45;100.00;100777.28;691540;28;1243;-44
2022/08/27 00:17:38;;;;;;;8.30;7.03;;;;;;;17.43;100.00;100779.09;692450;28;1195;-46
2022/08/27 00:17:59;;;;;;;8.07;7.17;;;;;;;17.36;100.00;100783.72;692775;28;1131;-47
2022/08/27 00:18:19;;;;;;;8.43;7.20;;;;;;;17.33;100.00;100771.50;693587;28;983;-45
2022/08/27 00:18:42;;;;;;;8.23;6.85;;;;;;;17.35;100.00;100777.56;690574;28;4536;-45
2022/08/27 00:19:03;;;;;;;8.48;7.22;;;;;;;17.33;100.00;100774.13;693434;28;1918;-49
2022/08/27 00:19:24;;;;;;;9.63;7.05;;;;;;;17.33;100.00;100771.50;693204;28;3870;-47
2022/08/27 00:19:44;;;;;;;9.38;6.95;;;;;;;17.31;100.00;100773.28;692323;28;1301;-48
2022/08/27 00:20:06;;;;;;;8.57;7.13;;;;;;;17.34;100.00;100775.84;692858;28;1449;-46
2022/08/27 00:20:27;;;;;;;9.40;7.50;;;;;;;17.34;100.00;100772.34;692750;28;1527;-49
2022/08/27 00:20:47;;;;;;;8.70;7.30;;;;;;;17.31;100.00;100775.94;693341;28;1353;-44
2022/08/27 00:21:08;;;;;;;8.75;7.43;;;;;;;17.34;100.00;100778.47;692945;28;1377;-46
2022/08/27 00:21:29;;;;;;;9.15;7.07;;;;;;;17.35;100.00;100780.22;690333;28;1382;-49
2022/08/27 00:21:49;;;;;;;8.60;7.05;;;;;;;17.46;100.00;100771.06;688595;28;4912;-45
2022/08/27 00:22:11;;;;;;;8.60;7.00;;;;;;;17.46;100.00;100769.31;688646;28;1491;-48
2022/08/27 00:22:31;;;;;;;8.70;7.80;;;;;;;17.51;100.00;100774.44;688731;28;1274;-44
2022/08/27 00:22:52;;;;;;;8.70;7.63;;;;;;;17.45;100.00;100774.66;689234;28;1334;-46
2022/08/27 00:23:12;;;;;;;8.65;7.45;;;;;;;17.40;100.00;100776.56;694017;28;1475;-45
2022/08/27 00:23:34;;;;;;;8.60;7.70;;;;;;;17.34;100.00;100774.97;692861;28;1467;-46
2022/08/27 00:23:54;;;;;;;8.68;7.40;;;;;;;17.32;100.00;100769.75;690360;28;892;-45
2022/08/27 00:24:15;;;;;;;10.97;7.80;;;;;;;17.36;100.00;100771.38;691445;28;1193;-47
2022/08/27 00:24:35;;;;;;;8.70;7.10;;;;;;;17.41;100.00;100779.16;692928;28;1234;-45
2022/08/27 00:24:56;;;;;;;8.40;7.43;;;;;;;17.41;100.00;100779.16;691321;28;4680;-46
2022/08/27 00:25:18;;;;;;;11.10;8.17;;;;;;;17.39;100.00;100774.81;692621;28;1149;-45
2022/08/27 00:25:38;;;;;;;12.18;8.15;;;;;;;17.35;100.00;100774.94;691983;28;1680;-47
2022/08/27 00:25:59;;;;;;;9.93;8.13;;;;;;;17.37;100.00;100772.25;693537;28;1234;-45
2022/08/27 00:26:19;;;;;;;8.88;7.72;;;;;;;17.35;100.00;100767.00;693383;28;984;-47
2022/08/27 00:26:40;;;;;;;8.75;7.60;;;;;;;17.38;100.00;100767.81;693396;28;1435;-46
2022/08/27 00:27:01;;;;;;;9.00;7.70;;;;;;;17.38;100.00;100773.09;693296;28;1227;-45
2022/08/27 00:27:21;;;;;;;9.35;7.10;;;;;;;17.39;100.00;100769.53;693953;28;1042;-48
2022/08/27 00:27:42;;;;;;;8.98;7.38;;;;;;;17.36;100.00;100771.38;695347;28;4326;-45
2022/08/27 00:28:02;;;;;;;9.60;7.67;;;;;;;17.35;100.00;100774.94;692407;28;2765;-44
2022/08/27 00:28:26;;;;;;;9.18;7.95;;;;;;;17.41;100.00;100773.03;687668;28;2590;-45
2022/08/27 00:28:46;;;;;;;10.25;8.05;;;;;;;17.46;100.00;100771.97;692690;28;1322;-46
2022/08/27 00:29:07;;;;;;;9.55;7.50;;;;;;;17.45;100.00;100769.38;692606;28;1130;-43
2022/08/27 00:29:27;;;;;;;8.45;7.55;;;;;;;17.46;100.00;100773.72;693823;28;1145;-45
2022/08/27 00:29:48;;;;;;;10.73;8.53;;;;;;;17.47;100.00;100767.53;693550;28;809;-51
2022/08/27 00:30:13;;;;;;;11.20;8.50;;;;;;;17.41;100.00;100773.03;693791;28;904;-48
2022/08/27 00:30:33;;;;;;;9.15;8.15;;;;;;;17.38;100.00;100767.81;693781;28;1289;-49
2022/08/27 00:30:54;;;;;;;8.88;7.70;;;;;;;17.37;100.00;100764.31;693075;28;4433;-44
2022/08/27 00:31:15;;;;;;;9.50;8.00;;;;;;;17.35;100.00;100774.94;692177;28;1313;-49
2022/08/27 00:31:36;;;;;;;9.43;8.18;;;;;;;17.34;100.00;100778.47;693010;28;785;-49
2022/08/27 00:31:58;;;;;;;10.23;8.25;;;;;;;17.36;100.00;100771.38;693424;28;935;-48
2022/08/27 00:32:18;;;;;;;10.40;8.57;;;;;;;17.35;100.00;100774.94;693848;28;1086;-46
2022/08/27 00:32:40;;;;;;;9.97;8.63;;;;;;;17.36;100.00;100774.03;693002;28;1166;-51
2022/08/27 00:33:02;;;;;;;9.18;7.95;;;;;;;17.36;100.00;100767.84;693268;28;1002;-46
2022/08/27 00:33:23;;;;;;;9.15;8.00;;;;;;;17.31;100.00;100768.00;693715;28;1267;-47
2022/08/27 00:33:44;;;;;;;10.90;8.45;;;;;;;17.25;100.00;100773.50;692430;28;4344;-48
2022/08/27 00:34:04;;;;;;;11.50;8.82;;;;;;;17.33;100.00;100776.78;693389;28;1230;-48
2022/08/27 00:34:25;;;;;;;10.60;9.20;;;;;;;17.34;100.00;100773.19;694968;28;1215;-45
2022/08/27 00:34:45;;;;;;;10.18;8.88;;;;;;;17.29;100.00;100768.97;695372;28;1114;-45
2022/08/27 00:35:07;;;;;;;9.40;8.40;;;;;;;17.30;100.00;100774.19;695101;28;1146;-46
2022/08/27 00:35:27;;;;;;;10.27;8.57;;;;;;;17.30;100.00;100776.84;694965;28;1261;-46
2022/08/27 00:35:48;;;;;;;11.70;8.73;;;;;;;17.32;100.00;100771.50;694297;28;1296;-45
2022/08/27 00:36:11;;;;;;;10.85;8.73;;;;;;;17.27;100.00;100770.81;693554;28;1135;-48
2022/08/27 00:36:31;;;;;;;10.23;8.93;;;;;;;17.22;100.00;100776.22;690220;28;1335;-47
2022/08/27 00:36:52;;;;;;;10.50;9.10;;;;;;;17.24;100.00;100773.53;690536;28;4266;-44
2022/08/27 00:37:13;;;;;;;11.35;9.23;;;;;;;17.23;100.00;100775.31;689860;28;1541;-45
2022/08/27 00:37:33;;;;;;;11.70;9.13;;;;;;;17.23;100.00;100772.66;690681;28;1266;-44
2022/08/27 00:37:54;;;;;;;11.15;9.40;;;;;;;17.36;100.00;100774.03;691348;28;985;-48
2022/08/27 00:38:14;;;;;;;11.17;9.97;;;;;;;17.29;100.00;100775.13;691684;28;972;-49
2022/08/27 00:38:37;;;;;;;10.88;9.70;;;;;;;17.23;100.00;100780.59;692539;28;1071;-47
2022/08/27 00:38:57;;;;;;;11.15;9.82;;;;;;;17.28;100.00;100770.75;692389;28;1965;-44
2022/08/27 00:39:19;;;;;;;11.38;9.70;;;;;;;17.31;100.00;100770.66;693303;28;1102;-45
2022/08/27 00:39:39;;;;;;;10.95;9.68;;;;;;;17.23;100.00;100774.47;692397;28;4385;-48
2022/08/27 00:40:00;;;;;;;10.73;9.57;;;;;;;17.24;100.00;100771.75;693056;28;1404;-46
2022/08/27 00:40:22;;;;;;;11.45;10.25;;;;;;;17.21;100.00;100777.16;693340;28;1198;-45
2022/08/27 00:40:42;;;;;;;11.75;9.93;;;;;;;17.18;100.00;100772.81;692469;28;1113;-47
2022/08/27 00:41:07;;;;;;;11.23;9.40;;;;;;;17.26;100.00;100777.00;692921;28;1063;-49
2022/08/27 00:41:27;;;;;;;11.68;10.00;;;;;;;17.19;100.00;100771.88;693041;28;1285;-45
2022/08/27 00:41:48;;;;;;;12.10;9.70;;;;;;;17.21;100.00;100774.50;692527;28;4836;-46
2022/08/27 00:42:09;;;;;;;11.18;9.98;;;;;;;17.15;100.00;100780.81;693600;28;1278;-49
2022/08/27 00:42:29;;;;;;;11.70;10.40;;;;;;;17.10;100.00;100771.31;693368;28;1567;-43
2022/08/27 00:42:50;;;;;;;13.17;10.80;;;;;;;17.07;100.00;100777.56;692113;28;4390;-47
2022/08/27 00:43:10;;;;;;;11.30;9.73;;;;;;;17.07;100.00;100776.69;693062;28;1196;-48
2022/08/27 00:43:56;;;;;;;11.10;9.50;;;;;;;17.13;100.00;100773.88;693390;28;1170;-48
2022/08/27 00:44:16;;;;;;;10.05;8.93;;;;;;;17.17;100.00;100771.09;690797;28;1074;-46
2022/08/27 00:44:38;;;;;;;9.87;8.83;;;;;;;17.19;100.00;100778.97;693304;28;1065;-46
2022/08/27 00:44:58;;;;;;;10.70;8.77;;;;;;;17.18;100.00;100774.56;692107;28;1029;-45
2022/08/27 00:45:21;;;;;;;10.03;9.03;;;;;;;17.24;100.00;100777.03;692425;28;1123;-49
2022/08/27 00:45:45;;;;;;;9.95;8.90;;;;;;;17.25;100.00;100776.16;691874;28;4384;-46
2022/08/27 00:46:13;;;;;;;10.75;8.77;;;;;;;17.31;100.00;100773.28;693326;28;1014;-48
2022/08/27 00:46:45;;;;;;;11.05;8.60;;;;;;;17.29;100.00;100776.91;692008;28;1352;-47
2022/08/27 00:47:11;;;;;;;10.82;8.85;;;;;;;17.23;100.00;100777.94;692771;28;1433;-46
2022/08/27 00:47:35;;;;;;;10.27;8.95;;;;;;;17.17;100.00;100778.16;692470;28;1240;-44
2022/08/27 00:47:58;;;;;;;11.05;9.07;;;;;;;17.15;100.00;100779.97;691998;28;1068;-45
2022/08/27 00:48:23;;;;;;;10.57;8.57;;;;;;;17.14;100.00;100776.47;691954;28;1466;-49
2022/08/27 00:48:44;;;;;;;10.38;8.82;;;;;;;17.21;100.00;100776.25;691735;28;4382;-44
2022/08/27 00:49:10;;;;;;;10.32;8.77;;;;;;;17.28;100.00;100783.09;692468;28;1120;-46
2022/08/27 00:49:36;;;;;;;10.00;9.00;;;;;;;17.24;100.00;100784.97;693082;28;1576;-48
2022/08/27 00:50:01;;;;;;;10.05;8.95;;;;;;;17.18;100.00;100777.22;692383;28;1004;-48
2022/08/27 00:50:35;;;;;;;10.60;8.65;;;;;;;17.21;100.00;100782.44;692583;28;1139;-43
2022/08/27 00:50:56;;;;;;;9.50;8.50;;;;;;;17.21;100.00;100781.53;693090;28;1396;-46
2022/08/27 00:51:16;;;;;;;10.85;8.48;;;;;;;17.18;100.00;100778.09;692158;28;1258;-45
2022/08/27 00:51:37;;;;;;;10.20;8.80;;;;;;;17.15;100.00;100779.97;692815;28;4426;-46
2022/08/27 00:52:05;;;;;;;11.00;8.85;;;;;;;17.19;100.00;100785.09;693562;28;1281;-49
2022/08/27 00:52:34;;;;;;;9.45;8.55;;;;;;;17.25;100.00;100784.06;692583;28;1258;-48
2022/08/27 00:52:58;;;;;;;10.07;8.05;;;;;;;17.19;100.00;100778.97;693059;28;1158;-46
2022/08/27 00:53:22;;;;;;;8.80;7.90;;;;;;;17.16;100.00;100782.56;691721;28;1414;-46
2022/08/27 00:53:43;;;;;;;9.13;8.15;;;;;;;17.16;100.00;100784.34;693777;28;1059;-49
2022/08/27 00:54:07;;;;;;;10.05;8.00;;;;;;;17.18;100.00;100782.50;693897;28;1243;-45
2022/08/27 00:54:28;;;;;;;8.85;7.72;;;;;;;17.10;100.00;100781.88;693395;28;1371;-47
2022/08/27 00:54:52;;;;;;;8.63;7.72;;;;;;;17.15;100.00;100785.25;692765;28;4541;-44
2022/08/27 00:55:20;;;;;;;9.75;7.80;;;;;;;17.14;100.00;100783.50;692876;28;1072;-46
2022/08/27 00:55:53;;;;;;;9.52;8.07;;;;;;;17.10;100.00;100780.09;693259;28;1327;-49
2022/08/27 00:56:19;;;;;;;9.95;7.88;;;;;;;17.03;100.00;100783.84;693275;28;980;-46
2022/08/27 00:56:44;;;;;;;9.07;7.35;;;;;;;17.04;100.00;100780.28;693551;28;1039;-44
2022/08/27 00:57:07;;;;;;;9.32;7.53;;;;;;;17.07;100.00;100785.50;693102;28;1138;-46
2022/08/27 00:57:29;;;;;;;9.40;7.55;;;;;;;17.08;100.00;100786.34;692747;28;1080;-44
2022/08/27 00:58:03;;;;;;;10.13;7.50;;;;;;;17.15;100.00;100772.03;691662;28;4457;-46
2022/08/27 00:58:31;;;;;;;9.75;6.90;;;;;;;17.12;100.00;100782.69;689946;28;1325;-46
2022/08/27 00:58:53;;;;;;;9.40;7.22;;;;;;;17.10;100.00;100789.78;690087;28;1449;-46
2022/08/27 00:59:16;;;;;;;8.43;7.28;;;;;;;17.10;100.00;100779.22;688113;28;1971;-46
2022/08/27 00:59:40;;;;;;;8.40;7.07;;;;;;;17.13;100.00;100779.16;690762;28;1091;-49
2022/08/27 01:00:02;;;;;;;9.00;7.35;;;;;;;17.11;100.00;100783.59;687908;28;1003;-49
2022/08/27 01:00:23;;;;;;;9.23;8.20;;;;;;;17.15;100.00;100780.81;690413;28;1490;-46
2022/08/27 01:00:45;;;;;;;9.07;8.00;;;;;;;17.14;100.00;100788.78;690280;28;4440;-46
2022/08/27 01:01:09;;;;;;;9.18;7.15;;;;;;;17.11;100.00;100780.97;690084;28;1147;-49
2022/08/27 01:02:17;;;;;;;8.02;7.22;;;;;;;17.08;100.00;100781.91;689742;28;1144;-46
2022/08/27 01:02:17;;;;;;;8.50;7.30;;;;;;;17.04;100.00;100790.00;693093;28;1191;-47
2022/08/27 01:02:38;;;;;;;9.32;7.25;;;;;;;17.03;100.00;100789.13;693263;28;1372;-47
2022/08/27 01:02:58;;;;;;;8.98;7.63;;;;;;;17.00;100.00;100787.44;693640;28;1564;-46
2022/08/27 01:03:19;;;;;;;10.60;7.80;;;;;;;17.01;100.00;100783.88;692200;28;1089;-49
2022/08/27 01:03:43;;;;;;;11.32;8.18;;;;;;;16.93;100.00;100783.22;691610;28;4606;-47
2022/08/27 01:04:07;;;;;;;9.95;8.40;;;;;;;16.84;100.00;100784.34;693541;28;1143;-46
2022/08/27 01:04:29;;;;;;;10.00;8.13;;;;;;;16.86;100.00;100786.94;692994;28;1396;-47
2022/08/27 01:04:57;;;;;;;8.73;7.82;;;;;;;16.93;100.00;100788.50;695180;28;1389;-45
2022/08/27 01:05:24;;;;;;;10.27;7.72;;;;;;;16.95;100.00;100788.50;695346;28;1155;-45
2022/08/27 01:05:47;;;;;;;8.77;7.43;;;;;;;17.03;100.00;100786.50;695014;28;1266;-47
2022/08/27 01:06:11;;;;;;;8.77;7.85;;;;;;;17.00;100.00;100784.81;695604;28;1182;-45
2022/08/27 01:06:35;;;;;;;9.20;8.00;;;;;;;17.00;100.00;100784.81;695492;28;1099;-46
2022/08/27 01:06:57;;;;;;;8.48;7.50;;;;;;;17.01;100.00;100786.50;692465;28;4313;-48
2022/08/27 01:07:18;;;;;;;9.27;7.60;;;;;;;17.00;100.00;100792.72;692067;28;1493;-47
2022/08/27 01:07:42;;;;;;;10.23;7.82;;;;;;;17.09;100.00;100793.38;693092;28;1248;-48
2022/08/27 01:08:09;;;;;;;10.02;7.50;;;;;;;17.09;100.00;100783.66;693004;28;1033;-46
2022/08/27 01:08:35;;;;;;;9.57;7.70;;;;;;;17.02;100.00;100785.59;693618;28;1317;-48
2022/08/27 01:09:06;;;;;;;9.75;8.15;;;;;;;17.07;100.00;100782.84;693139;28;1240;-46
2022/08/27 01:09:27;;;;;;;9.32;7.40;;;;;;;17.05;100.00;100789.09;691357;28;1174;-47
2022/08/27 01:09:50;;;;;;;9.40;7.60;;;;;;;17.05;100.00;100784.66;690233;28;4519;-46
2022/08/27 01:10:15;;;;;;;9.30;7.57;;;;;;;17.01;100.00;100789.16;689900;28;1128;-47
2022/08/27 01:10:37;;;;;;;9.70;7.78;;;;;;;17.00;100.00;100786.56;690815;28;1036;-45
2022/08/27 01:10:59;;;;;;;10.77;7.65;;;;;;;16.97;100.00;100784.88;692525;28;1261;-48
2022/08/27 01:11:24;;;;;;;9.00;7.90;;;;;;;16.95;100.00;100792.00;692986;28;1109;-46
2022/08/27 01:11:47;;;;;;;9.25;7.72;;;;;;;16.94;100.00;100792.88;692058;28;1395;-49
2022/08/27 01:12:10;;;;;;;9.80;7.40;;;;;;;16.96;100.00;100783.16;693282;28;1079;-45
2022/08/27 01:12:32;;;;;;;9.98;7.78;;;;;;;17.00;100.00;100789.19;692458;28;1317;-50
2022/08/27 01:12:55;;;;;;;8.75;7.68;;;;;;;17.02;100.00;100790.03;689894;28;4402;-44
2022/08/27 01:13:19;;;;;;;8.65;7.30;;;;;;;17.04;100.00;100788.19;691336;28;1388;-45
2022/08/27 01:13:39;;;;;;;9.07;7.25;;;;;;;17.04;100.00;100790.00;690176;28;1188;-45
2022/08/27 01:14:02;;;;;;;8.90;7.20;;;;;;;16.99;100.00;100791.00;690818;28;1183;-44
2022/08/27 01:14:22;;;;;;;9.20;7.40;;;;;;;16.95;100.00;100788.50;691376;28;1220;-44
2022/08/27 01:14:44;;;;;;;9.43;7.03;;;;;;;16.94;100.00;100789.41;693082;28;1373;-46
2022/08/27 01:15:08;;;;;;;9.43;7.40;;;;;;;16.96;100.00;100784.91;693773;28;1226;-48
2022/08/27 01:15:29;;;;;;;9.00;7.60;;;;;;;16.94;100.00;100790.25;692301;28;3888;-46
2022/08/27 01:15:51;;;;;;;8.80;7.63;;;;;;;17.03;100.00;100786.50;691403;28;4292;-46
2022/08/27 01:16:19;;;;;;;9.88;7.53;;;;;;;17.04;100.00;100780.28;692427;28;1400;-47
2022/08/27 01:16:53;;;;;;;9.32;7.32;;;;;;;17.08;100.00;100781.06;692812;28;1373;-47
2022/08/27 01:17:14;;;;;;;8.63;6.82;;;;;;;17.06;100.00;100790.78;692144;28;1416;-46
2022/08/27 01:17:37;;;;;;;9.05;7.10;;;;;;;17.08;100.00;100784.56;693748;28;1119;-49
2022/08/27 01:17:59;;;;;;;9.00;7.10;;;;;;;17.05;100.00;100786.44;693293;28;1083;-46
2022/08/27 01:18:20;;;;;;;8.75;7.20;;;;;;;17.06;100.00;100781.09;693149;28;1180;-45
2022/08/27 01:18:40;;;;;;;10.03;7.57;;;;;;;17.09;100.00;100785.44;693784;28;4580;-47
2022/08/27 01:19:06;;;;;;;9.32;7.47;;;;;;;17.07;100.00;100779.31;693011;28;1976;-49
2022/08/27 01:19:34;;;;;;;8.18;6.90;;;;;;;17.04;100.00;100787.34;691082;28;1070;-48
2022/08/27 01:19:58;;;;;;;9.30;7.53;;;;;;;17.00;100.00;100789.19;693427;28;1111;-46
2022/08/27 01:20:35;;;;;;;8.93;7.25;;;;;;;17.00;100.00;100778.63;691653;28;1212;-48
2022/08/27 01:21:02;;;;;;;9.75;7.82;;;;;;;17.08;100.00;100783.69;691876;28;1012;-48
2022/08/27 01:21:55;;;;;;;11.27;7.75;;;;;;;17.04;100.00;100784.72;691748;28;1216;-48
2022/08/27 01:22:42;;;;;;;10.80;6.50;;;;;;;17.04;100.00;100777.63;687465;28;4689;-44
2022/08/27 01:23:14;;;;;;;9.70;7.10;;;;;;;16.99;100.00;100788.34;693345;28;1150;-44
2022/08/27 01:24:04;;;;;;;9.32;7.20;;;;;;;17.02;100.00;100782.97;692484;28;1051;-46
2022/08/27 01:24:44;;;;;;;8.48;7.20;;;;;;;17.15;100.00;100780.81;690778;28;1296;-47
2022/08/27 01:25:08;;;;;;;9.80;6.97;;;;;;;17.05;100.00;100782.00;692305;28;4904;-45
2022/08/27 01:25:29;;;;;;;8.68;7.18;;;;;;;17.05;100.00;100781.16;696330;28;1231;-44
2022/08/27 01:25:51;;;;;;;9.52;7.18;;;;;;;17.04;100.00;100784.72;695194;28;1155;-49
2022/08/27 01:26:14;;;;;;;10.43;6.97;;;;;;;17.02;100.00;100782.13;695293;28;1093;-50
2022/08/27 01:26:35;;;;;;;8.98;6.93;;;;;;;16.99;100.00;100788.34;694317;28;1335;-44
2022/08/27 01:26:57;;;;;;;9.48;6.88;;;;;;;16.99;100.00;100782.22;695639;28;1331;-48
2022/08/27 01:27:21;;;;;;;9.65;7.00;;;;;;;16.95;100.00;100784.06;694809;28;1210;-45
2022/08/27 01:27:43;;;;;;;8.40;6.53;;;;;;;16.91;100.00;100779.78;692338;28;4353;-48
2022/08/27 01:28:07;;;;;;;8.35;6.78;;;;;;;16.95;100.00;100780.56;692586;28;1230;-45
2022/08/27 01:28:30;;;;;;;8.85;6.57;;;;;;;16.94;100.00;100778.84;692013;28;1174;-45
2022/08/27 01:28:51;;;;;;;8.88;6.88;;;;;;;16.94;100.00;100776.19;693745;28;1438;-45
2022/08/27 01:29:13;;;;;;;9.77;6.82;;;;;;;16.91;100.00;100781.56;692890;28;1543;-46
2022/08/27 01:29:35;;;;;;;8.60;6.68;;;;;;;16.91;100.00;100785.06;692678;28;1070;-45
2022/08/27 01:29:56;;;;;;;9.43;6.80;;;;;;;16.87;100.00;100775.47;692814;28;1370;-46
2022/08/27 01:30:19;;;;;;;8.40;6.78;;;;;;;16.84;100.00;100778.19;692426;28;1370;-47
2022/08/27 01:30:41;;;;;;;8.65;6.95;;;;;;;16.81;100.00;100780.94;691698;28;4357;-47
2022/08/27 01:31:04;;;;;;;9.55;7.28;;;;;;;16.90;100.00;100783.31;692954;28;1317;-46
2022/08/27 01:31:25;;;;;;;9.75;7.30;;;;;;;16.82;100.00;100777.38;691967;28;1253;-50
2022/08/27 01:31:46;;;;;;;8.95;7.07;;;;;;;16.84;100.00;100781.69;693180;28;1162;-52
2022/08/27 01:32:16;;;;;;;9.88;6.72;;;;;;;16.83;100.00;100779.09;691776;28;1268;-47
2022/08/27 01:32:38;;;;;;;10.20;7.05;;;;;;;16.81;100.00;100781.78;693137;28;1189;-48
2022/08/27 01:32:58;;;;;;;11.27;6.80;;;;;;;16.83;100.00;100782.59;692540;28;1091;-44
2022/08/27 01:33:20;;;;;;;11.30;6.70;;;;;;;16.90;100.00;100785.13;693245;28;1031;-46
2022/08/27 01:33:51;;;;;;;8.05;6.80;;;;;;;16.99;100.00;100776.94;692652;28;4679;-47
2022/08/27 01:34:12;;;;;;;8.55;6.55;;;;;;;16.96;100.00;100777.88;693155;28;1450;-45
2022/08/27 01:34:33;;;;;;;8.30;6.70;;;;;;;16.96;100.00;100782.28;692649;28;1309;-47
2022/08/27 01:34:53;;;;;;;7.88;6.50;;;;;;;16.96;100.00;100777.88;692291;28;1385;-44
2022/08/27 01:35:16;;;;;;;8.68;6.78;;;;;;;16.95;100.00;100778.78;694280;28;1155;-46
2022/08/27 01:35:36;;;;;;;8.73;6.82;;;;;;;16.95;100.00;100776.16;694440;28;1446;-47
2022/08/27 01:35:56;;;;;;;9.25;6.32;;;;;;;16.98;100.00;100776.03;694785;28;1146;-45
2022/08/27 01:36:17;;;;;;;9.07;6.30;;;;;;;17.03;100.00;100778.56;694469;28;1395;-45
2022/08/27 01:36:37;;;;;;;9.13;6.40;;;;;;;16.99;100.00;100777.78;695866;28;4468;-44
2022/08/27 01:36:58;;;;;;;9.10;6.47;;;;;;;17.08;100.00;100779.28;694603;28;1201;-48
2022/08/27 01:37:19;;;;;;;8.27;6.83;;;;;;;17.05;100.00;100779.38;692352;28;1252;-49
2022/08/27 01:37:42;;;;;;;7.88;6.97;;;;;;;16.91;100.00;100774.50;692479;28;1196;-48
2022/08/27 01:38:03;;;;;;;9.55;7.40;;;;;;;16.97;100.00;100776.09;692432;28;1195;-46
2022/08/27 01:38:23;;;;;;;8.95;7.35;;;;;;;16.96;100.00;100783.16;692003;28;1171;-47
2022/08/27 01:38:46;;;;;;;9.73;7.43;;;;;;;17.00;100.00;100771.59;692299;28;1091;-46
2022/08/27 01:39:07;;;;;;;9.20;7.22;;;;;;;16.93;100.00;100783.22;692891;28;1994;-44
2022/08/27 01:39:27;;;;;;;9.02;7.72;;;;;;;16.89;100.00;100775.44;692509;28;1458;-47
2022/08/27 01:39:47;;;;;;;12.00;8.30;;;;;;;16.95;100.00;100778.78;692411;28;4579;-45
2022/08/27 01:40:09;;;;;;;11.73;7.88;;;;;;;16.96;100.00;100782.28;692037;28;1313;-45
2022/08/27 01:40:30;;;;;;;9.98;7.65;;;;;;;16.91;100.00;100771.88;692810;28;1329;-47
2022/08/27 01:40:50;;;;;;;10.63;7.53;;;;;;;16.87;100.00;100778.09;692921;28;1059;-48
2022/08/27 01:41:11;;;;;;;11.37;7.37;;;;;;;16.83;100.00;100768.53;691534;28;1111;-47
2022/08/27 01:41:32;;;;;;;11.07;7.60;;;;;;;16.81;100.00;100783.59;692373;28;1290;-48
2022/08/27 01:41:52;;;;;;;10.30;7.90;;;;;;;16.92;100.00;100770.06;693181;28;4974;-47
2022/08/27 01:42:17;;;;;;;12.15;8.52;;;;;;;16.92;100.00;100767.44;692836;28;1352;-47
2022/08/27 01:42:48;;;;;;;11.80;8.82;;;;;;;16.90;100.00;100775.41;692710;28;4398;-46
2022/08/27 01:43:08;;;;;;;11.30;8.45;;;;;;;16.90;100.00;100771.91;692816;28;1135;-46
2022/08/27 01:43:30;;;;;;;11.35;8.32;;;;;;;16.87;100.00;100770.19;692159;28;1111;-46
2022/08/27 01:43:51;;;;;;;11.63;8.20;;;;;;;16.88;100.00;100773.69;692815;28;1448;-45
2022/08/27 01:44:11;;;;;;;12.20;8.20;;;;;;;16.90;100.00;100777.19;692747;28;977;-49
2022/08/27 01:44:46;;;;;;;11.23;8.40;;;;;;;16.91;100.00;100777.16;692175;28;1215;-46
2022/08/27 01:45:26;;;;;;;12.85;8.77;;;;;;;16.92;100.00;100772.72;692057;28;1350;-45
2022/08/27 01:45:49;;;;;;;12.40;8.45;;;;;;;16.96;100.00;100771.72;691800;28;4333;-45
2022/08/27 01:46:09;;;;;;;11.05;8.40;;;;;;;16.92;100.00;100770.97;690421;28;1344;-49
2022/08/27 01:46:30;;;;;;;11.10;8.43;;;;;;;16.90;100.00;100778.03;692256;28;1393;-47
2022/08/27 01:46:50;;;;;;;11.50;9.45;;;;;;;16.82;100.00;100774.72;694321;28;1281;-51
2022/08/27 01:47:11;;;;;;;11.30;9.27;;;;;;;16.82;100.00;100775.63;693291;28;1299;-45
2022/08/27 01:47:33;;;;;;;12.98;8.80;;;;;;;16.83;100.00;100773.81;692543;28;1331;-44